createdAt,value
2023-03-06T00:01:18.727Z,99328.06
2023-03-06T00:03:54.059Z,99325.41
2023-03-06T00:06:27.965Z,99330.59
2023-03-06T00:08:59.065Z,99351.44
2023-03-06T00:11:35.509Z,99338.34
2023-03-06T00:14:07.189Z,99342.63
2023-03-06T00:16:33.839Z,99330.50
2023-03-06T00:19:08.783Z,99328.78
2023-03-06T00:21:41.033Z,99323.50
2023-03-06T00:24:07.625Z,99304.41
2023-03-06T00:26:35.618Z,99297.47
2023-03-06T00:29:02.493Z,99314.84
2023-03-06T00:31:29.090Z,99327.88
2023-03-06T00:33:55.390Z,99328.72
2023-03-06T00:36:21.648Z,99327.81
2023-03-06T00:38:47.915Z,99317.31
2023-03-06T00:41:14.246Z,99320.78
2023-03-06T00:43:40.605Z,99318.16
2023-03-06T00:46:07.022Z,99319.09
2023-03-06T00:48:33.965Z,99304.41
2023-03-06T00:51:00.334Z,99306.88
2023-03-06T00:53:26.748Z,99306.88
2023-03-06T00:55:53.091Z,99309.50
2023-03-06T00:58:19.476Z,99309.53
2023-03-06T01:00:45.972Z,99306.88
2023-03-06T01:03:12.687Z,99297.25
2023-03-06T01:05:40.062Z,99293.66
2023-03-06T01:08:06.428Z,99287.59
2023-03-06T01:10:32.784Z,99287.66
2023-03-06T01:12:59.193Z,99285.97
2023-03-06T01:15:25.615Z,99284.19
2023-03-06T01:17:54.324Z,99273.63
2023-03-06T01:20:21.219Z,99265.72
2023-03-06T01:22:47.571Z,99266.66
2023-03-06T01:25:13.924Z,99264.06
2023-03-06T01:27:40.200Z,99263.22
2023-03-06T01:30:07.131Z,99262.34
2023-03-06T01:32:33.710Z,99254.50
2023-03-06T01:35:00.045Z,99248.38
2023-03-06T01:37:26.389Z,99256.22
2023-03-06T01:39:52.741Z,99248.28
2023-03-06T01:42:18.990Z,99241.31
2023-03-06T01:45:04.418Z,99231.69
2023-03-06T01:47:30.895Z,99237.00
2023-03-06T01:49:58.867Z,99233.47
2023-03-06T01:52:32.869Z,99230.00
2023-03-06T01:55:21.387Z,99231.69
2023-03-06T01:57:55.145Z,99233.47
2023-03-06T02:00:27.200Z,99228.31
2023-03-06T02:03:00.755Z,99232.69
2023-03-06T02:05:26.998Z,99230.84
2023-03-06T02:07:54.136Z,99223.88
2023-03-06T02:10:21.093Z,99227.38
2023-03-06T02:12:49.290Z,99221.25
2023-03-06T02:15:18.654Z,99204.69
2023-03-06T02:17:47.143Z,99217.81
2023-03-06T02:20:25.451Z,99218.72
2023-03-06T02:23:06.780Z,99209.09
2023-03-06T02:25:40.817Z,99206.44
2023-03-06T02:28:11.136Z,99208.16
2023-03-06T02:30:37.930Z,99209.97
2023-03-06T02:33:05.203Z,99209.94
2023-03-06T02:35:35.951Z,99208.22
2023-03-06T02:38:13.296Z,99197.00
2023-03-06T02:40:43.371Z,99195.19
2023-03-06T02:43:12.281Z,99198.75
2023-03-06T02:45:45.511Z,99186.50
2023-03-06T02:48:13.190Z,99178.75
2023-03-06T02:50:40.698Z,99181.44
2023-03-06T02:53:07.845Z,99174.44
2023-03-06T02:55:34.725Z,99180.53
2023-03-06T02:58:01.183Z,99177.03
2023-03-06T03:00:28.139Z,99168.22
2023-03-06T03:02:54.626Z,99172.59
2023-03-06T03:05:21.271Z,99170.97
2023-03-06T03:07:47.583Z,99179.66
2023-03-06T03:10:13.991Z,99177.03
2023-03-06T03:12:41.179Z,99172.75
2023-03-06T03:15:07.720Z,99172.84
2023-03-06T03:17:38.770Z,99170.22
2023-03-06T03:20:08.124Z,99171.97
2023-03-06T03:22:34.453Z,99157.25
2023-03-06T03:25:00.863Z,99170.28
2023-03-06T03:27:27.214Z,99164.28
2023-03-06T03:29:53.529Z,99159.97
2023-03-06T03:32:19.825Z,99166.00
2023-03-06T03:34:46.273Z,99154.72
2023-03-06T03:37:12.540Z,99158.22
2023-03-06T03:39:38.796Z,99147.72
2023-03-06T03:42:06.118Z,99171.16
2023-03-06T03:44:32.403Z,99159.00
2023-03-06T03:46:58.717Z,99159.03
2023-03-06T03:49:25.156Z,99158.94
2023-03-06T03:51:51.576Z,99141.56
2023-03-06T03:54:17.970Z,99151.09
2023-03-06T03:56:45.005Z,99146.84
2023-03-06T03:59:11.514Z,99154.63
2023-03-06T04:01:39.701Z,99152.91
2023-03-06T04:04:06.199Z,99139.81
2023-03-06T04:06:32.558Z,99133.78
2023-03-06T04:08:58.886Z,99136.31
2023-03-06T04:11:25.251Z,99120.66
2023-03-06T04:13:51.548Z,99129.16
2023-03-06T04:16:17.871Z,99124.03
2023-03-06T04:18:44.217Z,99122.25
2023-03-06T04:21:10.499Z,99128.41
2023-03-06T04:23:36.861Z,99122.34
2023-03-06T04:26:03.666Z,99104.16
2023-03-06T04:28:29.993Z,99116.25
2023-03-06T04:30:56.362Z,99114.53
2023-03-06T04:33:22.648Z,99124.03
2023-03-06T04:35:49.060Z,99108.47
2023-03-06T04:38:15.374Z,99115.31
2023-03-06T04:40:44.501Z,99113.59
2023-03-06T04:43:11.367Z,99090.19
2023-03-06T04:45:37.749Z,99108.34
2023-03-06T04:48:04.427Z,99092.81
2023-03-06T04:50:33.984Z,99099.69
2023-03-06T04:53:01.791Z,99096.31
2023-03-06T04:55:28.452Z,99106.75
2023-03-06T04:57:54.771Z,99085.97
2023-03-06T05:00:23.679Z,99101.63
2023-03-06T05:02:50.776Z,99102.50
2023-03-06T05:05:18.238Z,99097.31
2023-03-06T05:07:44.710Z,99101.75
2023-03-06T05:10:13.789Z,99098.25
2023-03-06T05:12:40.227Z,99099.09
2023-03-06T05:15:08.063Z,99080.94
2023-03-06T05:17:34.382Z,99103.59
2023-03-06T05:20:00.835Z,99087.09
2023-03-06T05:22:27.134Z,99088.72
2023-03-06T05:24:53.482Z,99090.47
2023-03-06T05:27:19.846Z,99086.09
2023-03-06T05:29:46.142Z,99073.06
2023-03-06T05:32:12.615Z,99084.41
2023-03-06T05:34:39.693Z,99092.34
2023-03-06T05:37:06.105Z,99081.13
2023-03-06T05:39:32.430Z,99076.78
2023-03-06T05:41:58.715Z,99073.38
2023-03-06T05:44:25.494Z,99068.94
2023-03-06T05:46:51.820Z,99089.75
2023-03-06T05:49:18.146Z,99080.97
2023-03-06T05:51:44.429Z,99080.06
2023-03-06T05:54:10.958Z,99079.13
2023-03-06T05:56:37.340Z,99073.97
2023-03-06T05:59:03.674Z,99071.38
2023-03-06T06:01:30.259Z,99080.09
2023-03-06T06:03:56.609Z,99076.69
2023-03-06T06:06:22.957Z,99063.59
2023-03-06T06:08:49.301Z,99059.28
2023-03-06T06:11:15.647Z,99065.38
2023-03-06T06:13:41.959Z,99065.34
2023-03-06T06:16:16.049Z,99074.81
2023-03-06T06:18:43.379Z,99059.31
2023-03-06T06:21:12.085Z,99079.34
2023-03-06T06:23:38.360Z,99073.22
2023-03-06T06:26:07.551Z,99081.00
2023-03-06T06:28:34.688Z,99085.34
2023-03-06T06:31:01.432Z,99085.34
2023-03-06T06:33:27.791Z,99072.41
2023-03-06T06:35:54.124Z,99075.84
2023-03-06T06:38:20.481Z,99073.25
2023-03-06T06:41:04.691Z,99088.91
2023-03-06T06:43:32.946Z,99088.81
2023-03-06T06:46:19.576Z,99092.28
2023-03-06T06:48:47.645Z,99094.88
2023-03-06T06:51:13.961Z,99093.97
2023-03-06T06:53:40.268Z,99090.50
2023-03-06T06:56:06.726Z,99087.94
2023-03-06T06:58:33.051Z,99086.19
2023-03-06T07:01:13.077Z,99093.97
2023-03-06T07:03:40.477Z,99079.16
2023-03-06T07:06:07.540Z,99094.03
2023-03-06T07:08:34.704Z,99099.19
2023-03-06T07:11:04.955Z,99097.41
2023-03-06T07:13:31.237Z,99106.03
2023-03-06T07:15:58.182Z,99094.81
2023-03-06T07:18:24.488Z,99099.97
2023-03-06T07:20:54.472Z,99080.84
2023-03-06T07:23:21.025Z,99104.22
2023-03-06T07:25:51.356Z,99099.78
2023-03-06T07:28:19.355Z,99090.09
2023-03-06T07:30:45.954Z,99071.66
2023-03-06T07:33:12.573Z,99084.38
2023-03-06T07:35:38.946Z,99097.84
2023-03-06T07:38:05.241Z,99079.78
2023-03-06T07:40:31.648Z,99074.50
2023-03-06T07:43:12.945Z,99091.81
2023-03-06T07:45:43.382Z,99085.72
2023-03-06T07:48:09.913Z,99084.91
2023-03-06T07:50:36.225Z,99079.78
2023-03-06T07:53:02.518Z,99093.00
2023-03-06T07:55:28.803Z,99094.09
2023-03-06T07:57:55.127Z,99095.91
2023-03-06T08:00:21.642Z,99103.88
2023-03-06T08:02:49.474Z,99103.09
2023-03-06T08:05:16.914Z,99105.72
2023-03-06T08:07:44.934Z,99090.22
2023-03-06T08:10:13.813Z,99099.66
2023-03-06T08:12:40.082Z,99103.88
2023-03-06T08:15:09.340Z,99105.66
2023-03-06T08:17:35.632Z,99101.34
2023-03-06T08:20:02.047Z,99099.78
2023-03-06T08:22:28.332Z,99089.38
2023-03-06T08:24:56.226Z,99115.31
2023-03-06T08:27:22.596Z,99106.56
2023-03-06T08:29:48.871Z,99111.72
2023-03-06T08:32:15.277Z,99107.34
2023-03-06T08:34:42.782Z,99110.69
2023-03-06T08:37:09.184Z,99113.22
2023-03-06T08:39:35.501Z,99118.22
2023-03-06T08:42:01.782Z,99111.22
2023-03-06T08:44:28.077Z,99110.34
2023-03-06T08:46:54.387Z,99117.19
2023-03-06T08:49:20.885Z,99111.94
2023-03-06T08:51:47.274Z,99119.72
2023-03-06T08:54:13.614Z,99118.84
2023-03-06T08:56:40.028Z,99118.94
2023-03-06T08:59:06.971Z,99121.69
2023-03-06T09:01:36.509Z,99130.31
2023-03-06T09:04:06.537Z,99117.91
2023-03-06T09:06:35.925Z,99123.63
2023-03-06T09:09:02.810Z,99123.34
2023-03-06T09:11:29.244Z,99117.00
2023-03-06T09:13:55.966Z,99122.97
2023-03-06T09:16:23.114Z,99119.34
2023-03-06T09:18:52.688Z,99125.22
2023-03-06T09:21:20.602Z,99119.22
2023-03-06T09:23:47.008Z,99098.63
2023-03-06T09:26:13.430Z,99109.31
2023-03-06T09:28:40.178Z,99097.16
2023-03-06T09:31:16.168Z,99112.34
2023-03-06T09:33:43.077Z,99125.16
2023-03-06T09:36:15.532Z,99116.50
2023-03-06T09:38:41.906Z,99124.22
2023-03-06T09:43:43.067Z,99127.22
2023-03-06T09:46:32.523Z,99131.31
2023-03-06T09:49:23.788Z,99123.44
2023-03-06T09:52:18.104Z,99126.97
2023-03-06T09:55:11.474Z,99114.13
2023-03-06T09:57:48.167Z,99129.03
2023-03-06T10:00:19.464Z,99116.66
2023-03-06T10:02:48.662Z,99125.78
2023-03-06T10:05:31.789Z,99109.56
2023-03-06T10:08:06.271Z,99116.00
2023-03-06T10:10:43.806Z,99115.81
2023-03-06T10:13:20.717Z,99109.81
2023-03-06T10:15:49.654Z,99115.38
2023-03-06T10:18:16.175Z,99121.84
2023-03-06T10:20:53.459Z,99118.13
2023-03-06T10:23:47.159Z,99122.28
2023-03-06T10:26:19.201Z,99110.47
2023-03-06T10:29:07.982Z,99106.81
2023-03-06T10:31:35.159Z,99094.22
2023-03-06T10:34:23.745Z,99113.63
2023-03-06T10:36:50.661Z,99116.72
2023-03-06T10:39:20.060Z,99107.31
2023-03-06T10:41:48.057Z,99102.13
2023-03-06T10:44:14.297Z,99105.69
2023-03-06T10:46:43.130Z,99108.31
2023-03-06T10:49:36.121Z,99109.94
2023-03-06T10:52:21.046Z,99114.09
2023-03-06T10:54:48.280Z,99121.53
2023-03-06T10:57:29.404Z,99112.00
2023-03-06T10:59:59.364Z,99110.19
2023-03-06T11:02:37.230Z,99110.22
2023-03-06T11:05:06.055Z,99110.22
2023-03-06T11:07:34.352Z,99120.13
2023-03-06T11:10:03.746Z,99106.25
2023-03-06T11:12:38.977Z,99108.03
2023-03-06T11:15:14.246Z,99100.34
2023-03-06T11:18:00.931Z,99102.91
2023-03-06T11:20:51.011Z,99103.06
2023-03-06T11:23:57.564Z,99102.25
2023-03-06T11:26:34.765Z,99087.75
2023-03-06T11:29:34.615Z,99090.59
2023-03-06T11:32:14.309Z,99082.50
2023-03-06T11:34:57.604Z,99087.28
2023-03-06T11:37:32.343Z,99081.88
2023-03-06T11:40:17.566Z,99083.81
2023-03-06T11:43:05.412Z,99081.28
2023-03-06T11:45:54.221Z,99067.84
2023-03-06T11:48:26.863Z,99074.59
2023-03-06T11:50:59.130Z,99067.16
2023-03-06T11:53:32.210Z,99061.34
2023-03-06T11:56:14.387Z,99055.78
2023-03-06T11:58:56.134Z,99051.25
2023-03-06T12:01:34.530Z,99054.38
2023-03-06T12:04:18.260Z,99045.38
2023-03-06T12:06:47.297Z,99050.75
2023-03-06T12:09:13.591Z,99046.63
2023-03-06T12:11:58.688Z,99040.44
2023-03-06T12:14:35.646Z,99046.19
2023-03-06T12:17:13.429Z,99046.66
2023-03-06T12:20:07.222Z,99046.78
2023-03-06T12:22:57.740Z,99047.13
2023-03-06T12:25:41.636Z,99038.31
2023-03-06T12:28:33.863Z,99046.69
2023-03-06T12:31:18.109Z,99048.13
2023-03-06T12:34:11.988Z,99034.63
2023-03-06T12:36:48.828Z,99042.75
2023-03-06T12:39:25.630Z,99029.16
2023-03-06T12:42:32.228Z,99020.50
2023-03-06T12:45:27.707Z,99028.75
2023-03-06T12:47:58.921Z,99023.56
2023-03-06T12:50:33.963Z,99020.53
2023-03-06T12:53:06.257Z,99011.22
2023-03-06T12:55:40.604Z,99012.16
2023-03-06T12:58:29.851Z,99014.28
2023-03-06T13:01:27.138Z,99012.19
2023-03-06T13:04:04.908Z,98998.34
2023-03-06T13:07:02.302Z,99008.25
2023-03-06T13:09:36.724Z,99006.47
2023-03-06T13:12:19.265Z,99001.94
2023-03-06T13:14:54.138Z,99008.75
2023-03-06T13:17:25.763Z,99010.13
2023-03-06T13:20:40.835Z,98998.00
2023-03-06T13:23:29.013Z,98988.75
2023-03-06T13:25:59.831Z,98992.69
2023-03-06T13:28:40.645Z,98986.03
2023-03-06T13:31:18.224Z,98990.41
2023-03-06T13:33:58.534Z,98983.81
2023-03-06T13:36:30.894Z,98981.25
2023-03-06T13:39:02.047Z,98986.75
2023-03-06T13:41:31.397Z,98995.56
2023-03-06T13:44:00.462Z,98988.66
2023-03-06T13:46:35.708Z,98989.75
2023-03-06T13:49:07.911Z,98979.41
2023-03-06T13:51:43.639Z,98983.91
2023-03-06T13:54:40.311Z,98978.16
2023-03-06T13:57:25.730Z,98975.78
2023-03-06T14:00:16.844Z,98978.44
2023-03-06T14:03:22.129Z,98979.69
2023-03-06T14:05:50.540Z,98971.16
2023-03-06T14:08:19.703Z,98973.50
2023-03-06T14:10:48.950Z,98973.31
2023-03-06T14:13:21.914Z,98972.19
2023-03-06T14:15:51.095Z,98984.00
2023-03-06T14:18:23.878Z,98986.38
2023-03-06T14:21:05.831Z,98979.75
2023-03-06T14:23:35.481Z,98979.13
2023-03-06T14:26:22.272Z,98971.41
2023-03-06T14:28:52.670Z,98980.28
2023-03-06T14:31:22.279Z,98977.72
2023-03-06T14:33:57.041Z,98970.25
2023-03-06T14:36:28.716Z,98973.91
2023-03-06T14:39:05.045Z,98981.88
2023-03-06T14:41:34.756Z,98964.59
2023-03-06T14:44:30.460Z,98981.47
2023-03-06T14:47:17.480Z,98975.03
2023-03-06T14:49:43.732Z,98976.78
2023-03-06T14:52:20.807Z,98979.28
2023-03-06T14:54:48.486Z,98977.81
2023-03-06T14:57:20.317Z,98973.91
2023-03-06T14:59:56.027Z,98973.25
2023-03-06T15:02:25.614Z,98967.88
2023-03-06T15:05:02.057Z,98970.50
2023-03-06T15:07:32.474Z,98968.91
2023-03-06T15:09:59.536Z,98963.59
2023-03-06T15:12:33.864Z,98968.09
2023-03-06T15:15:24.542Z,98973.34
2023-03-06T15:17:50.857Z,98967.00
2023-03-06T15:20:37.776Z,98965.91
2023-03-06T15:23:15.281Z,98963.16
2023-03-06T15:25:50.879Z,98963.78
2023-03-06T15:28:27.911Z,98967.16
2023-03-06T15:31:10.633Z,98963.38
2023-03-06T15:33:37.489Z,98960.75
2023-03-06T15:36:07.013Z,98954.63
2023-03-06T15:38:43.417Z,98957.38
2023-03-06T15:41:31.759Z,98960.72
2023-03-06T15:44:00.169Z,98956.31
2023-03-06T15:46:27.092Z,98953.53
2023-03-06T15:48:55.972Z,98962.19
2023-03-06T15:51:22.660Z,98960.28
2023-03-06T15:53:49.350Z,98964.53
2023-03-06T15:56:20.348Z,98967.91
2023-03-06T15:58:46.704Z,98969.03
2023-03-06T16:01:16.947Z,98968.31
2023-03-06T16:03:44.998Z,98966.97
2023-03-06T16:06:16.624Z,98970.00
2023-03-06T16:08:43.185Z,98973.00
2023-03-06T16:11:17.215Z,98964.50
2023-03-06T16:13:44.709Z,98977.72
2023-03-06T16:16:19.430Z,98975.25
2023-03-06T16:18:46.231Z,98978.91
2023-03-06T16:21:12.592Z,98974.63
2023-03-06T16:23:39.980Z,98977.25
2023-03-06T16:26:16.947Z,98980.81
2023-03-06T16:28:45.118Z,98979.19
2023-03-06T16:31:15.413Z,98981.84
2023-03-06T16:33:41.970Z,98985.34
2023-03-06T16:36:26.540Z,98979.31
2023-03-06T16:38:53.277Z,98985.44
2023-03-06T16:41:20.363Z,98987.22
2023-03-06T16:43:47.505Z,98988.16
2023-03-06T16:46:15.741Z,98981.06
2023-03-06T16:48:42.105Z,98978.50
2023-03-06T16:51:13.026Z,98989.78
2023-03-06T16:53:39.327Z,98987.97
2023-03-06T16:56:06.032Z,98992.31
2023-03-06T16:58:32.416Z,98987.19
2023-03-06T17:00:58.751Z,98980.16
2023-03-06T17:03:25.428Z,98978.34
2023-03-06T17:05:51.890Z,98985.28
2023-03-06T17:08:18.189Z,98980.03
2023-03-06T17:10:44.535Z,98994.97
2023-03-06T17:13:10.974Z,98994.03
2023-03-06T17:15:37.291Z,98990.69
2023-03-06T17:18:03.908Z,98995.06
2023-03-06T17:20:30.238Z,98995.94
2023-03-06T17:22:56.584Z,98993.31
2023-03-06T17:25:23.130Z,98997.75
2023-03-06T17:27:49.509Z,98998.66
2023-03-06T17:30:16.222Z,99000.47
2023-03-06T17:32:42.580Z,98997.00
2023-03-06T17:35:10.042Z,98996.06
2023-03-06T17:37:36.570Z,99003.91
2023-03-06T17:40:03.410Z,98997.94
2023-03-06T17:42:29.690Z,98999.78
2023-03-06T17:44:57.258Z,99001.53
2023-03-06T17:47:23.518Z,99004.19
2023-03-06T17:49:49.793Z,99008.53
2023-03-06T17:52:16.090Z,99014.78
2023-03-06T17:54:42.397Z,99006.16
2023-03-06T17:57:08.732Z,99016.59
2023-03-06T17:59:35.104Z,99009.56
2023-03-06T18:02:01.872Z,99016.59
2023-03-06T18:04:29.104Z,99020.16
2023-03-06T18:06:56.875Z,99017.59
2023-03-06T18:09:23.337Z,99013.28
2023-03-06T18:11:49.665Z,99024.63
2023-03-06T18:14:16.012Z,99008.09
2023-03-06T18:16:42.387Z,99006.47
2023-03-06T18:19:10.934Z,99021.38
2023-03-06T18:21:39.130Z,99020.56
2023-03-06T18:24:05.898Z,99015.34
2023-03-06T18:26:32.268Z,99013.66
2023-03-06T18:29:01.834Z,99026.78
2023-03-06T18:31:38.981Z,99032.13
2023-03-06T18:34:08.763Z,99025.13
2023-03-06T18:36:35.705Z,99027.81
2023-03-06T18:39:03.749Z,99022.69
2023-03-06T18:41:31.078Z,99012.25
2023-03-06T18:43:58.712Z,99019.34
2023-03-06T18:46:28.898Z,99020.19
2023-03-06T18:48:55.228Z,99009.78
2023-03-06T18:51:21.680Z,99016.81
2023-03-06T18:53:48.032Z,99010.72
2023-03-06T18:56:17.266Z,99017.72
2023-03-06T18:58:44.340Z,99020.41
2023-03-06T19:01:11.686Z,99019.50
2023-03-06T19:03:38.345Z,99020.44
2023-03-06T19:06:07.441Z,99010.88
2023-03-06T19:08:35.248Z,99020.44
2023-03-06T19:11:06.930Z,99014.31
2023-03-06T19:13:33.378Z,99008.16
2023-03-06T19:15:59.997Z,99001.13
2023-03-06T19:18:27.814Z,99010.75
2023-03-06T19:20:54.557Z,99009.91
2023-03-06T19:23:21.972Z,99015.25
2023-03-06T19:25:59.057Z,98997.78
2023-03-06T19:28:26.123Z,99010.06
2023-03-06T19:30:52.748Z,99016.16
2023-03-06T19:33:19.660Z,99006.47
2023-03-06T19:35:46.487Z,99016.13
2023-03-06T19:38:13.892Z,99016.16
2023-03-06T19:40:40.201Z,99009.22
2023-03-06T19:43:06.478Z,99017.16
2023-03-06T19:45:32.854Z,99009.28
2023-03-06T19:48:00.825Z,99005.66
2023-03-06T19:50:30.858Z,98998.72
2023-03-06T19:52:57.560Z,99011.00
2023-03-06T19:55:26.189Z,99010.22
2023-03-06T19:57:53.633Z,99015.47
2023-03-06T20:00:20.759Z,99006.78
2023-03-06T20:02:47.040Z,99006.88
2023-03-06T20:05:13.402Z,99011.22
2023-03-06T20:07:39.682Z,99011.19
2023-03-06T20:10:07.081Z,99006.81
2023-03-06T20:12:33.561Z,98993.75
2023-03-06T20:14:59.978Z,98989.38
2023-03-06T20:17:26.261Z,98982.38
2023-03-06T20:19:52.726Z,98992.00
2023-03-06T20:22:19.314Z,98988.56
2023-03-06T20:24:45.873Z,98992.13
2023-03-06T20:27:12.250Z,98989.56
2023-03-06T20:29:43.167Z,98980.91
2023-03-06T20:32:09.499Z,98979.13
2023-03-06T20:34:38.852Z,98974.03
2023-03-06T20:37:06.374Z,98983.59
2023-03-06T20:39:32.706Z,98977.63
2023-03-06T20:41:59.961Z,98969.84
2023-03-06T20:44:27.272Z,98979.41
2023-03-06T20:46:53.663Z,98964.63
2023-03-06T20:49:19.963Z,98972.47
2023-03-06T20:51:46.291Z,98962.91
2023-03-06T20:54:14.947Z,98969.03
2023-03-06T20:56:44.567Z,98969.97
2023-03-06T20:59:12.239Z,98969.94
2023-03-06T21:01:41.732Z,98959.41
2023-03-06T21:04:10.140Z,98965.47
2023-03-06T21:06:37.676Z,98968.94
2023-03-06T21:09:05.260Z,98962.88
2023-03-06T21:11:32.060Z,98959.38
2023-03-06T21:13:58.363Z,98959.41
2023-03-06T21:16:25.879Z,98965.53
2023-03-06T21:18:58.963Z,98948.28
2023-03-06T21:27:34.808Z,98919.59
2023-03-06T21:30:01.122Z,98930.03
2023-03-06T21:32:27.475Z,98947.41
2023-03-06T21:34:53.738Z,98944.78
2023-03-06T21:37:20.015Z,98941.31
2023-03-06T21:39:48.679Z,98948.34
2023-03-06T21:42:15.000Z,98939.66
2023-03-06T21:44:41.390Z,98940.56
2023-03-06T21:47:09.454Z,98931.00
2023-03-06T21:49:35.844Z,98930.97
2023-03-06T21:52:02.141Z,98928.38
2023-03-06T21:54:29.197Z,98931.91
2023-03-06T21:56:55.695Z,98935.41
2023-03-06T21:59:21.985Z,98928.50
2023-03-06T22:01:48.350Z,98928.53
2023-03-06T22:04:14.715Z,98922.47
2023-03-06T22:06:41.280Z,98924.22
2023-03-06T22:09:07.769Z,98919.84
2023-03-06T22:11:37.269Z,98918.97
2023-03-06T22:14:04.941Z,98917.19
2023-03-06T22:16:31.647Z,98914.59
2023-03-06T22:18:58.974Z,98906.84
2023-03-06T22:21:25.317Z,98897.22
2023-03-06T22:23:54.441Z,98906.75
2023-03-06T22:26:21.127Z,98914.59
2023-03-06T22:28:47.482Z,98907.66
2023-03-06T22:31:18.730Z,98911.97
2023-03-06T22:33:45.438Z,98912.84
2023-03-06T22:36:14.884Z,98903.25
2023-03-06T22:38:43.724Z,98903.19
2023-03-06T22:41:15.068Z,98892.69
2023-03-06T22:43:41.777Z,98896.09
2023-03-06T22:46:14.282Z,98897.81
2023-03-06T22:48:41.094Z,98900.44
2023-03-06T22:51:11.885Z,98890.81
2023-03-06T22:53:38.863Z,98887.22
2023-03-06T22:56:07.808Z,98885.34
2023-03-06T22:58:37.058Z,98880.94
2023-03-06T23:01:06.065Z,98875.69
2023-03-06T23:03:32.432Z,98878.22
2023-03-06T23:05:58.688Z,98872.16
2023-03-06T23:08:24.981Z,98879.03
2023-03-06T23:10:51.334Z,98879.81
2023-03-06T23:13:17.619Z,98872.81
2023-03-06T23:15:43.976Z,98876.28
2023-03-06T23:18:10.374Z,98878.91
2023-03-06T23:20:41.821Z,98867.59
2023-03-06T23:23:08.085Z,98872.81
2023-03-06T23:25:34.701Z,98862.34
2023-03-06T23:28:01.727Z,98868.41
2023-03-06T23:30:28.041Z,98871.91
2023-03-06T23:32:54.326Z,98870.94
2023-03-06T23:35:20.743Z,98866.56
2023-03-06T23:37:47.072Z,98866.53
2023-03-06T23:40:13.814Z,98869.97
2023-03-06T23:42:40.282Z,98869.16
2023-03-06T23:45:07.322Z,98860.38
2023-03-06T23:47:33.919Z,98876.09
2023-03-06T23:50:00.249Z,98874.41
2023-03-06T23:52:26.668Z,98869.09
2023-03-06T23:54:52.954Z,98868.25
2023-03-06T23:57:19.347Z,98867.28
2023-03-06T23:59:46.010Z,98865.50
